createdAt,value
2023-04-04T00:01:00.379Z,69
2023-04-04T00:02:06.783Z,69
2023-04-04T00:03:14.003Z,69
2023-04-04T00:04:20.945Z,69
2023-04-04T00:05:28.209Z,69
2023-04-04T00:06:35.223Z,69
2023-04-04T00:07:41.920Z,69
2023-04-04T00:08:48.971Z,69
2023-04-04T00:11:03.567Z,69
2023-04-04T00:12:10.144Z,69
2023-04-04T00:13:16.834Z,69
2023-04-04T00:14:23.980Z,69
2023-04-04T00:15:30.930Z,68
2023-04-04T00:16:38.762Z,69
2023-04-04T00:17:44.754Z,68
2023-04-04T00:18:51.829Z,68
2023-04-04T00:19:58.972Z,68
2023-04-04T00:21:08.672Z,68
2023-04-04T00:22:13.227Z,68
2023-04-04T00:23:19.712Z,68
2023-04-04T00:24:26.859Z,68
2023-04-04T00:25:33.918Z,68
2023-04-04T00:26:41.075Z,68
2023-04-04T00:27:48.185Z,68
2023-04-04T00:28:55.290Z,68
2023-04-04T00:30:01.896Z,68
2023-04-04T00:31:08.982Z,68
2023-04-04T00:32:16.064Z,68
2023-04-04T00:33:23.228Z,68
2023-04-04T00:34:29.660Z,68
2023-04-04T00:35:36.926Z,68
2023-04-04T00:36:44.008Z,68
2023-04-04T00:37:51.118Z,68
2023-04-04T00:38:58.077Z,68
2023-04-04T00:40:04.691Z,68
2023-04-04T00:41:11.813Z,68
2023-04-04T00:42:19.008Z,68
2023-04-04T00:43:26.096Z,68
2023-04-04T00:44:33.126Z,68
2023-04-04T00:45:39.766Z,67
2023-04-04T00:46:46.952Z,67
2023-04-04T00:47:53.989Z,67
2023-04-04T00:49:00.985Z,67
2023-04-04T00:50:08.080Z,67
2023-04-04T00:51:14.839Z,67
2023-04-04T00:52:21.989Z,67
2023-04-04T00:53:29.012Z,67
2023-04-04T00:54:36.323Z,67
2023-04-04T00:55:43.126Z,67
2023-04-04T00:56:49.772Z,67
2023-04-04T00:57:56.931Z,67
2023-04-04T00:59:03.959Z,67
2023-04-04T01:00:11.114Z,67
2023-04-04T01:01:18.283Z,67
2023-04-04T01:02:24.758Z,66
2023-04-04T01:03:32.040Z,66
2023-04-04T01:04:39.185Z,66
2023-04-04T01:05:46.033Z,66
2023-04-04T01:06:53.252Z,66
2023-04-04T01:07:59.793Z,66
2023-04-04T01:09:06.924Z,66
2023-04-04T01:10:13.994Z,66
2023-04-04T01:11:21.087Z,66
2023-04-04T01:12:28.266Z,66
2023-04-04T01:14:41.939Z,66
2023-04-04T01:15:49.058Z,66
2023-04-04T01:16:56.179Z,66
2023-04-04T01:18:03.267Z,66
2023-04-04T01:19:09.755Z,66
2023-04-04T01:20:16.913Z,66
2023-04-04T01:21:24.033Z,66
2023-04-04T01:22:31.012Z,66
2023-04-04T01:23:38.205Z,66
2023-04-04T01:24:44.821Z,66
2023-04-04T01:25:51.922Z,66
2023-04-04T01:26:59.090Z,66
2023-04-04T01:28:06.172Z,66
2023-04-04T01:29:13.242Z,66
2023-04-04T01:30:19.713Z,66
2023-04-04T01:31:26.854Z,66
2023-04-04T01:32:34.681Z,66
2023-04-04T01:33:41.161Z,66
2023-04-04T01:34:48.332Z,66
2023-04-04T01:35:54.890Z,66
2023-04-04T01:37:01.965Z,66
2023-04-04T01:38:09.010Z,66
2023-04-04T01:39:16.131Z,66
2023-04-04T01:40:23.260Z,66
2023-04-04T01:41:29.902Z,66
2023-04-04T01:42:36.884Z,66
2023-04-04T01:43:44.092Z,66
2023-04-04T01:44:51.665Z,66
2023-04-04T01:45:57.781Z,66
2023-04-04T01:47:04.830Z,66
2023-04-04T01:48:11.996Z,66
2023-04-04T01:49:19.029Z,66
2023-04-04T01:50:26.185Z,66
2023-04-04T01:51:32.677Z,66
2023-04-04T01:52:39.824Z,66
2023-04-04T01:53:47.095Z,66
2023-04-04T01:54:54.068Z,66
2023-04-04T01:56:01.146Z,66
2023-04-04T01:57:07.670Z,66
2023-04-04T01:58:14.914Z,66
2023-04-04T01:59:22.005Z,66
2023-04-04T02:00:28.973Z,66
2023-04-04T02:01:36.277Z,66
2023-04-04T02:02:42.744Z,66
2023-04-04T02:03:49.935Z,66
2023-04-04T02:04:56.919Z,66
2023-04-04T02:06:04.025Z,66
2023-04-04T02:07:11.085Z,66
2023-04-04T02:08:17.680Z,66
2023-04-04T02:09:24.897Z,66
2023-04-04T02:10:31.908Z,66
2023-04-04T02:11:39.098Z,66
2023-04-04T02:12:46.134Z,66
2023-04-04T02:13:52.768Z,66
2023-04-04T02:14:59.825Z,66
2023-04-04T02:16:07.045Z,66
2023-04-04T02:18:21.230Z,66
2023-04-04T02:19:27.788Z,66
2023-04-04T02:20:34.927Z,66
2023-04-04T02:21:41.933Z,66
2023-04-04T02:22:49.001Z,66
2023-04-04T02:23:56.357Z,66
2023-04-04T02:25:02.844Z,66
2023-04-04T02:26:09.786Z,66
2023-04-04T02:27:17.054Z,66
2023-04-04T02:28:24.275Z,66
2023-04-04T02:29:31.153Z,66
2023-04-04T02:30:37.839Z,66
2023-04-04T02:31:44.937Z,66
2023-04-04T02:32:52.078Z,66
2023-04-04T02:33:59.147Z,66
2023-04-04T02:35:06.278Z,66
2023-04-04T02:37:19.886Z,66
2023-04-04T02:38:27.037Z,67
2023-04-04T02:39:34.127Z,67
2023-04-04T02:40:41.578Z,67
2023-04-04T02:41:47.715Z,67
2023-04-04T02:42:54.931Z,67
2023-04-04T02:44:02.122Z,67
2023-04-04T02:45:09.101Z,67
2023-04-04T02:46:21.515Z,67
2023-04-04T02:47:22.803Z,67
2023-04-04T02:48:29.916Z,67
2023-04-04T02:49:37.059Z,67
2023-04-04T02:50:44.477Z,67
2023-04-04T02:51:51.275Z,67
2023-04-04T02:52:57.737Z,67
2023-04-04T02:54:05.550Z,67
2023-04-04T02:55:12.114Z,67
2023-04-04T02:56:19.150Z,67
2023-04-04T02:57:26.299Z,67
2023-04-04T02:58:32.912Z,67
2023-04-04T02:59:39.854Z,67
2023-04-04T03:00:47.117Z,67
2023-04-04T03:01:54.187Z,67
2023-04-04T03:03:01.512Z,67
2023-04-04T03:04:08.047Z,67
2023-04-04T03:05:15.130Z,67
2023-04-04T03:06:22.059Z,67
2023-04-04T03:07:29.256Z,67
2023-04-04T03:08:35.862Z,67
2023-04-04T03:09:42.786Z,67
2023-04-04T03:10:49.979Z,67
2023-04-04T03:11:57.085Z,67
2023-04-04T03:13:04.225Z,67
2023-04-04T03:14:10.804Z,67
2023-04-04T03:15:17.896Z,67
2023-04-04T03:16:25.057Z,67
2023-04-04T03:17:32.091Z,67
2023-04-04T03:18:39.265Z,67
2023-04-04T03:19:45.738Z,67
2023-04-04T03:21:59.879Z,67
2023-04-04T03:23:07.024Z,67
2023-04-04T03:24:14.228Z,67
2023-04-04T03:25:20.775Z,67
2023-04-04T03:26:27.878Z,67
2023-04-04T03:27:35.054Z,67
2023-04-04T03:28:42.072Z,67
2023-04-04T03:29:49.146Z,67
2023-04-04T03:30:55.818Z,67
2023-04-04T03:32:02.963Z,67
2023-04-04T03:33:10.208Z,67
2023-04-04T03:34:17.134Z,67
2023-04-04T03:35:24.171Z,67
2023-04-04T03:36:30.892Z,67
2023-04-04T03:37:37.904Z,67
2023-04-04T03:38:45.058Z,67
2023-04-04T03:39:52.554Z,67
2023-04-04T03:40:59.205Z,67
2023-04-04T03:42:05.818Z,67
2023-04-04T03:43:12.945Z,67
2023-04-04T03:44:19.992Z,67
2023-04-04T03:45:27.034Z,67
2023-04-04T03:46:35.878Z,67
2023-04-04T03:47:40.878Z,67
2023-04-04T03:48:47.967Z,67
2023-04-04T03:49:55.076Z,67
2023-04-04T03:51:02.186Z,67
2023-04-04T03:52:09.295Z,67
2023-04-04T03:53:15.843Z,67
2023-04-04T03:54:22.928Z,68
2023-04-04T03:55:29.994Z,68
2023-04-04T03:56:37.162Z,68
2023-04-04T03:57:44.222Z,68
2023-04-04T03:58:50.793Z,68
2023-04-04T03:59:58.041Z,68
2023-04-04T04:01:05.093Z,68
2023-04-04T04:02:12.250Z,68
2023-04-04T04:03:19.363Z,68
2023-04-04T04:05:33.054Z,68
2023-04-04T04:06:40.052Z,68
2023-04-04T04:07:47.173Z,68
2023-04-04T04:08:54.187Z,68
2023-04-04T04:10:00.844Z,68
2023-04-04T04:11:08.812Z,68
2023-04-04T04:12:15.052Z,68
2023-04-04T04:13:22.154Z,68
2023-04-04T04:14:29.147Z,68
2023-04-04T04:15:35.840Z,68
2023-04-04T04:16:42.892Z,68
2023-04-04T04:17:50.091Z,68
2023-04-04T04:18:57.281Z,68
2023-04-04T04:20:04.298Z,68
2023-04-04T04:21:10.735Z,68
2023-04-04T04:22:17.866Z,68
2023-04-04T04:23:24.958Z,68
2023-04-04T04:25:39.290Z,68
2023-04-04T04:26:45.898Z,68
2023-04-04T04:27:52.886Z,68
2023-04-04T04:29:00.101Z,68
2023-04-04T04:30:07.091Z,68
2023-04-04T04:31:13.847Z,68
2023-04-04T04:32:20.747Z,68
2023-04-04T04:33:27.991Z,68
2023-04-04T04:34:35.019Z,68
2023-04-04T04:35:42.275Z,68
2023-04-04T04:36:48.659Z,68
2023-04-04T04:37:55.923Z,68
2023-04-04T04:39:03.001Z,68
2023-04-04T04:40:10.083Z,68
2023-04-04T04:41:17.131Z,68
2023-04-04T04:42:23.774Z,68
2023-04-04T04:43:31.422Z,68
2023-04-04T04:44:38.017Z,68
2023-04-04T04:45:45.180Z,69
2023-04-04T04:46:52.235Z,69
2023-04-04T04:47:58.808Z,69
2023-04-04T04:49:06.039Z,69
2023-04-04T04:50:13.027Z,69
2023-04-04T04:51:20.095Z,69
2023-04-04T04:52:27.141Z,69
2023-04-04T04:53:33.755Z,69
2023-04-04T04:54:40.872Z,69
2023-04-04T04:55:47.980Z,69
2023-04-04T04:56:55.106Z,69
2023-04-04T04:58:02.607Z,69
2023-04-04T04:59:08.794Z,69
2023-04-04T05:00:15.809Z,69
2023-04-04T05:01:23.043Z,69
2023-04-04T05:02:30.183Z,69
2023-04-04T05:03:37.213Z,69
2023-04-04T05:04:43.876Z,69
2023-04-04T05:05:50.798Z,69
2023-04-04T05:06:57.968Z,69
2023-04-04T05:08:05.148Z,69
2023-04-04T05:09:12.439Z,69
2023-04-04T05:10:19.096Z,69
2023-04-04T05:11:26.078Z,69
2023-04-04T05:12:33.032Z,69
2023-04-04T05:13:40.305Z,69
2023-04-04T05:14:47.246Z,69
2023-04-04T05:15:53.804Z,69
2023-04-04T05:17:01.109Z,69
2023-04-04T05:18:08.034Z,69
2023-04-04T05:19:15.388Z,69
2023-04-04T05:20:22.172Z,69
2023-04-04T05:21:28.820Z,69
2023-04-04T05:22:35.864Z,69
2023-04-04T05:23:43.096Z,69
2023-04-04T05:24:50.033Z,69
2023-04-04T05:25:57.197Z,69
2023-04-04T05:27:03.856Z,69
2023-04-04T05:29:18.029Z,69
2023-04-04T05:30:25.206Z,69
2023-04-04T05:31:32.285Z,69
2023-04-04T05:33:45.877Z,69
2023-04-04T05:34:52.994Z,69
2023-04-04T05:36:00.183Z,69
2023-04-04T05:37:07.335Z,69
2023-04-04T05:38:13.871Z,69
2023-04-04T05:39:20.899Z,69
2023-04-04T05:40:27.970Z,69
2023-04-04T05:41:35.181Z,69
2023-04-04T05:42:42.279Z,69
2023-04-04T05:43:48.896Z,69
2023-04-04T05:44:56.012Z,69
2023-04-04T05:46:03.124Z,69
2023-04-04T05:47:10.148Z,69
2023-04-04T05:48:17.626Z,69
2023-04-04T05:49:23.838Z,69
2023-04-04T05:50:31.024Z,69
2023-04-04T05:51:38.035Z,69
2023-04-04T05:52:45.276Z,70
2023-04-04T05:53:52.218Z,70
2023-04-04T05:54:58.845Z,70
2023-04-04T05:56:05.996Z,70
2023-04-04T05:57:13.138Z,70
2023-04-04T05:58:20.151Z,70
2023-04-04T05:59:27.518Z,70
2023-04-04T06:00:33.960Z,70
2023-04-04T06:01:40.923Z,70
2023-04-04T06:02:48.169Z,70
2023-04-04T06:03:55.192Z,70
2023-04-04T06:05:01.680Z,71
2023-04-04T06:06:08.844Z,71
2023-04-04T06:07:16.052Z,71
2023-04-04T06:08:23.201Z,71
2023-04-04T06:09:30.293Z,71
2023-04-04T06:10:37.268Z,71
2023-04-04T06:11:43.941Z,71
2023-04-04T06:12:51.149Z,71
2023-04-04T06:13:58.155Z,71
2023-04-04T06:15:05.228Z,72
2023-04-04T06:16:11.894Z,72
2023-04-04T06:17:18.907Z,72
2023-04-04T06:18:25.906Z,72
2023-04-04T06:19:33.141Z,72
2023-04-04T06:20:40.374Z,72
2023-04-04T06:21:46.816Z,72
2023-04-04T06:22:53.916Z,72
2023-04-04T06:24:00.966Z,72
2023-04-04T06:25:08.021Z,72
2023-04-04T06:26:15.278Z,72
2023-04-04T06:27:21.748Z,72
2023-04-04T06:28:28.939Z,73
2023-04-04T06:29:35.942Z,73
2023-04-04T06:30:43.159Z,73
2023-04-04T06:32:56.796Z,73
2023-04-04T06:34:03.967Z,73
2023-04-04T06:35:11.054Z,73
2023-04-04T06:36:18.190Z,73
2023-04-04T06:37:25.308Z,73
2023-04-04T06:38:32.047Z,73
2023-04-04T06:39:38.883Z,73
2023-04-04T06:40:46.044Z,73
2023-04-04T06:41:53.067Z,73
2023-04-04T06:43:00.240Z,73
2023-04-04T06:44:06.858Z,73
2023-04-04T06:45:14.025Z,73
2023-04-04T06:46:20.963Z,73
2023-04-04T06:47:28.075Z,73
2023-04-04T06:48:35.188Z,73
2023-04-04T06:49:42.098Z,73
2023-04-04T06:50:49.482Z,73
2023-04-04T06:51:56.110Z,73
2023-04-04T06:53:03.153Z,73
2023-04-04T06:54:10.389Z,73
2023-04-04T06:55:16.874Z,73
2023-04-04T06:56:23.972Z,73
2023-04-04T06:57:31.132Z,73
2023-04-04T06:58:38.246Z,73
2023-04-04T06:59:45.457Z,73
2023-04-04T07:01:59.057Z,73
2023-04-04T07:03:06.038Z,73
2023-04-04T07:04:13.234Z,74
2023-04-04T07:05:20.308Z,74
2023-04-04T07:06:26.884Z,74
2023-04-04T07:07:34.037Z,74
2023-04-04T07:08:41.157Z,74
2023-04-04T07:09:48.278Z,74
2023-04-04T07:10:55.530Z,74
2023-04-04T07:12:02.037Z,74
2023-04-04T07:13:09.057Z,74
2023-04-04T07:14:16.050Z,74
2023-04-04T07:15:23.104Z,74
2023-04-04T07:16:30.458Z,74
2023-04-04T07:17:36.840Z,74
2023-04-04T07:18:44.139Z,74
2023-04-04T07:19:51.172Z,74
2023-04-04T07:20:58.091Z,74
2023-04-04T07:22:04.958Z,74
2023-04-04T07:23:11.946Z,74
2023-04-04T07:24:19.027Z,74
2023-04-04T07:25:26.833Z,74
2023-04-04T07:26:33.285Z,74
2023-04-04T07:27:39.775Z,74
2023-04-04T07:28:46.836Z,74
2023-04-04T07:29:54.060Z,74
2023-04-04T07:31:01.101Z,74
2023-04-04T07:32:08.248Z,74
2023-04-04T07:33:14.792Z,74
2023-04-04T07:34:21.888Z,74
2023-04-04T07:36:36.145Z,74
2023-04-04T07:37:43.133Z,74
2023-04-04T07:38:49.720Z,74
2023-04-04T07:39:57.303Z,74
2023-04-04T07:41:04.369Z,74
2023-04-04T07:42:11.132Z,74
2023-04-04T07:43:18.236Z,74
2023-04-04T07:44:24.887Z,74
2023-04-04T07:45:31.843Z,74
2023-04-04T07:46:39.468Z,74
2023-04-04T07:47:46.168Z,73
2023-04-04T07:48:53.362Z,73
2023-04-04T07:49:59.941Z,73
2023-04-04T07:51:08.932Z,73
2023-04-04T07:52:14.069Z,73
2023-04-04T07:53:21.146Z,73
2023-04-04T07:54:28.324Z,73
2023-04-04T07:55:34.885Z,73
2023-04-04T07:56:41.876Z,73
2023-04-04T07:57:49.136Z,73
2023-04-04T07:58:56.128Z,73
2023-04-04T08:00:03.417Z,73
2023-04-04T08:01:09.839Z,73
2023-04-04T08:02:17.046Z,73
2023-04-04T08:03:24.339Z,73
2023-04-04T08:04:31.258Z,73
2023-04-04T08:05:38.177Z,73
2023-04-04T08:06:44.845Z,73
2023-04-04T08:07:51.866Z,73
2023-04-04T08:08:59.095Z,73
2023-04-04T08:10:06.201Z,73
2023-04-04T08:11:13.259Z,72
2023-04-04T08:12:19.813Z,72
2023-04-04T08:13:26.956Z,72
2023-04-04T08:14:34.121Z,72
2023-04-04T08:15:41.198Z,72
2023-04-04T08:16:48.281Z,72
2023-04-04T08:17:54.922Z,72
2023-04-04T08:19:01.948Z,72
2023-04-04T08:20:09.053Z,72
2023-04-04T08:21:16.172Z,72
2023-04-04T08:22:23.216Z,72
2023-04-04T08:23:29.851Z,72
2023-04-04T08:24:36.956Z,72
2023-04-04T08:25:44.141Z,71
2023-04-04T08:26:58.189Z,71
2023-04-04T08:27:58.371Z,71
2023-04-04T08:29:04.872Z,72
2023-04-04T08:30:12.045Z,72
2023-04-04T08:31:19.011Z,72
2023-04-04T08:32:26.182Z,72
2023-04-04T08:33:46.280Z,72
2023-04-04T08:34:39.879Z,72
2023-04-04T08:35:47.123Z,72
2023-04-04T08:36:54.121Z,72
2023-04-04T08:38:01.085Z,72
2023-04-04T08:40:14.919Z,72
2023-04-04T08:41:22.106Z,72
2023-04-04T08:42:29.060Z,72
2023-04-04T08:43:36.195Z,72
2023-04-04T08:44:42.845Z,72
2023-04-04T08:45:49.808Z,71
2023-04-04T08:46:57.006Z,71
2023-04-04T08:48:04.294Z,71
2023-04-04T08:49:11.113Z,71
2023-04-04T08:50:17.812Z,71
2023-04-04T08:51:24.792Z,71
2023-04-04T08:52:32.098Z,71
2023-04-04T08:53:39.028Z,71
2023-04-04T08:54:46.148Z,71
2023-04-04T08:55:52.752Z,71
2023-04-04T08:56:59.921Z,71
2023-04-04T08:58:07.558Z,71
2023-04-04T08:59:14.305Z,71
2023-04-04T09:00:21.123Z,71
2023-04-04T09:01:27.747Z,72
2023-04-04T09:05:02.504Z,72
2023-04-04T09:05:56.165Z,72
2023-04-04T09:07:02.845Z,72
2023-04-04T09:08:10.013Z,72
2023-04-04T09:09:17.074Z,72
2023-04-04T09:10:24.147Z,72
2023-04-04T09:11:31.141Z,72
2023-04-04T09:12:37.795Z,72
2023-04-04T09:13:45.046Z,72
2023-04-04T09:14:52.070Z,71
2023-04-04T09:15:59.129Z,71
2023-04-04T09:17:06.257Z,71
2023-04-04T09:18:12.849Z,71
2023-04-04T09:19:20.008Z,71
2023-04-04T09:20:27.091Z,71
2023-04-04T09:21:34.199Z,70
2023-04-04T09:22:41.304Z,70
2023-04-04T09:23:47.832Z,70
2023-04-04T09:24:54.992Z,70
2023-04-04T09:26:04.737Z,69
2023-04-04T09:27:09.056Z,69
2023-04-04T09:28:16.641Z,69
2023-04-04T09:29:22.880Z,69
2023-04-04T09:30:29.845Z,69
2023-04-04T09:31:37.086Z,69
2023-04-04T09:32:44.111Z,69
2023-04-04T09:33:51.218Z,69
2023-04-04T09:34:57.950Z,69
2023-04-04T09:36:05.220Z,69
2023-04-04T09:37:11.988Z,69
2023-04-04T09:38:19.207Z,69
2023-04-04T09:39:26.660Z,69
2023-04-04T09:40:32.820Z,69
2023-04-04T09:41:39.864Z,69
2023-04-04T09:43:54.112Z,69
2023-04-04T09:45:00.840Z,69
2023-04-04T09:46:07.861Z,69
2023-04-04T09:47:18.108Z,69
2023-04-04T09:48:22.098Z,68
2023-04-04T09:49:29.205Z,68
2023-04-04T09:50:35.834Z,68
2023-04-04T09:51:42.984Z,68
2023-04-04T09:52:49.882Z,68
2023-04-04T09:53:57.029Z,68
2023-04-04T09:55:04.289Z,68
2023-04-04T09:56:10.805Z,68
2023-04-04T09:57:17.794Z,68
2023-04-04T09:58:24.979Z,68
2023-04-04T09:59:32.228Z,68
2023-04-04T10:00:39.587Z,68
2023-04-04T10:01:46.410Z,68
2023-04-04T10:02:53.041Z,68
2023-04-04T10:03:59.943Z,68
2023-04-04T10:05:07.200Z,68
2023-04-04T10:06:14.208Z,68
2023-04-04T10:07:20.747Z,68
2023-04-04T10:08:27.859Z,68
2023-04-04T10:09:35.062Z,68
2023-04-04T10:10:42.044Z,68
2023-04-04T10:11:49.317Z,68
2023-04-04T10:12:55.956Z,68
2023-04-04T10:14:03.041Z,68
2023-04-04T10:15:10.025Z,68
2023-04-04T10:16:17.237Z,68
2023-04-04T10:17:24.261Z,68
2023-04-04T10:18:30.829Z,68
2023-04-04T10:19:37.864Z,68
2023-04-04T10:20:45.156Z,68
2023-04-04T10:21:52.147Z,68
2023-04-04T10:22:59.145Z,68
2023-04-04T10:24:05.752Z,68
2023-04-04T10:25:12.999Z,68
2023-04-04T10:26:20.235Z,68
2023-04-04T10:27:27.056Z,68
2023-04-04T10:28:34.474Z,68
2023-04-04T10:29:40.978Z,68
2023-04-04T10:31:03.173Z,68
2023-04-04T10:31:55.100Z,68
2023-04-04T10:33:02.101Z,68
2023-04-04T10:35:15.782Z,68
2023-04-04T10:36:22.878Z,68
2023-04-04T10:37:30.061Z,68
2023-04-04T10:38:37.228Z,68
2023-04-04T10:39:44.353Z,68
2023-04-04T10:40:50.978Z,68
2023-04-04T10:41:58.069Z,68
2023-04-04T10:43:04.986Z,68
2023-04-04T10:44:12.222Z,68
2023-04-04T10:45:21.276Z,68
2023-04-04T10:47:32.958Z,68
2023-04-04T10:48:39.967Z,68
2023-04-04T10:49:47.223Z,68
2023-04-04T10:50:54.284Z,68
2023-04-04T10:52:00.979Z,68
2023-04-04T10:53:07.996Z,68
2023-04-04T10:54:15.153Z,68
2023-04-04T10:55:22.094Z,68
2023-04-04T10:56:29.286Z,68
2023-04-04T10:57:35.900Z,68
2023-04-04T10:58:43.002Z,68
2023-04-04T10:59:50.145Z,68
2023-04-04T11:00:57.219Z,68
2023-04-04T11:02:03.844Z,68
2023-04-04T11:03:11.027Z,68
2023-04-04T11:04:20.381Z,68
2023-04-04T11:05:25.702Z,68
2023-04-04T11:06:32.222Z,67
2023-04-04T11:07:38.736Z,67
2023-04-04T11:08:45.890Z,67
2023-04-04T11:09:53.205Z,67
2023-04-04T11:11:03.001Z,67
2023-04-04T11:12:07.233Z,67
2023-04-04T11:13:14.535Z,67
2023-04-04T11:14:20.892Z,67
2023-04-04T11:15:27.903Z,67
2023-04-04T11:16:35.130Z,67
2023-04-04T11:17:42.229Z,66
2023-04-04T11:18:49.139Z,66
2023-04-04T11:19:55.862Z,66
2023-04-04T11:21:03.005Z,66
2023-04-04T11:22:10.445Z,66
2023-04-04T11:23:17.254Z,66
2023-04-04T11:24:23.882Z,66
2023-04-04T11:25:30.900Z,67
2023-04-04T11:26:38.077Z,67
2023-04-04T11:27:45.062Z,67
2023-04-04T11:28:52.421Z,67
2023-04-04T11:29:59.359Z,67
2023-04-04T11:31:08.979Z,67
2023-04-04T11:32:13.120Z,67
2023-04-04T11:33:20.121Z,67
2023-04-04T11:34:27.353Z,67
2023-04-04T11:35:33.747Z,67
2023-04-04T11:36:40.895Z,67
2023-04-04T11:37:48.103Z,67
2023-04-04T11:38:55.319Z,67
2023-04-04T11:40:02.269Z,67
2023-04-04T11:41:08.903Z,67
2023-04-04T11:42:15.858Z,67
2023-04-04T11:43:22.990Z,67
2023-04-04T11:44:30.204Z,67
2023-04-04T11:45:37.519Z,67
2023-04-04T11:46:43.850Z,67
2023-04-04T11:47:50.881Z,67
2023-04-04T11:48:58.029Z,67
2023-04-04T11:51:12.308Z,68
2023-04-04T11:52:18.968Z,68
2023-04-04T11:53:25.951Z,68
2023-04-04T11:54:33.141Z,68
2023-04-04T11:55:40.271Z,68
2023-04-04T11:56:47.186Z,68
2023-04-04T11:57:53.876Z,68
2023-04-04T11:59:10.616Z,68
2023-04-04T12:00:08.136Z,68
2023-04-04T12:01:15.227Z,68
2023-04-04T12:03:28.909Z,68
2023-04-04T12:04:37.414Z,68
2023-04-04T12:05:43.698Z,68
2023-04-04T12:06:50.169Z,68
2023-04-04T12:07:57.460Z,68
2023-04-04T12:09:04.317Z,68
2023-04-04T12:10:10.962Z,67
2023-04-04T12:11:17.984Z,67
2023-04-04T12:12:25.102Z,67
2023-04-04T12:13:31.681Z,67
2023-04-04T12:14:38.950Z,67
2023-04-04T12:15:46.023Z,67
2023-04-04T12:16:53.024Z,67
2023-04-04T12:18:00.303Z,66
2023-04-04T12:19:15.515Z,66
2023-04-04T12:20:13.921Z,66
2023-04-04T12:21:20.884Z,66
2023-04-04T12:22:28.762Z,66
2023-04-04T12:23:35.229Z,66
2023-04-04T12:24:41.898Z,66
2023-04-04T12:25:48.799Z,67
2023-04-04T12:26:56.019Z,67
2023-04-04T12:28:03.038Z,67
2023-04-04T12:29:10.241Z,66
2023-04-04T12:30:16.808Z,66
2023-04-04T12:31:23.908Z,66
2023-04-04T12:32:30.992Z,66
2023-04-04T12:33:38.060Z,66
2023-04-04T12:34:48.731Z,66
2023-04-04T12:35:51.730Z,65
2023-04-04T12:36:58.889Z,65
2023-04-04T12:38:06.006Z,65
2023-04-04T12:39:13.150Z,65
2023-04-04T12:40:20.262Z,65
2023-04-04T12:41:26.885Z,65
2023-04-04T12:42:33.819Z,65
2023-04-04T12:43:41.022Z,65
2023-04-04T12:44:48.021Z,65
2023-04-04T12:45:55.288Z,65
2023-04-04T12:47:01.946Z,65
2023-04-04T12:48:09.017Z,65
2023-04-04T12:49:15.947Z,65
2023-04-04T12:50:23.025Z,65
2023-04-04T12:51:30.118Z,65
2023-04-04T12:52:36.856Z,65
2023-04-04T12:53:43.844Z,65
2023-04-04T12:55:04.855Z,65
2023-04-04T12:55:58.167Z,65
2023-04-04T12:57:05.297Z,65
2023-04-04T12:58:11.860Z,65
2023-04-04T12:59:19.000Z,65
2023-04-04T13:00:25.959Z,65
2023-04-04T13:01:33.199Z,65
2023-04-04T13:02:40.269Z,65
2023-04-04T13:03:46.931Z,65
2023-04-04T13:04:54.006Z,65
2023-04-04T13:06:01.015Z,65
2023-04-04T13:07:08.145Z,65
2023-04-04T13:08:15.182Z,65
2023-04-04T13:09:21.859Z,65
2023-04-04T13:10:28.978Z,65
2023-04-04T13:11:35.985Z,65
2023-04-04T13:12:43.345Z,64
2023-04-04T13:13:50.163Z,64
2023-04-04T13:14:56.832Z,64
2023-04-04T13:16:03.898Z,64
2023-04-04T13:17:11.079Z,64
2023-04-04T13:18:18.179Z,64
2023-04-04T13:19:25.764Z,64
2023-04-04T13:20:31.922Z,65
2023-04-04T13:21:38.939Z,65
2023-04-04T13:22:45.973Z,65
2023-04-04T13:23:53.305Z,65
2023-04-04T13:24:59.767Z,65
2023-04-04T13:26:06.901Z,65
2023-04-04T13:27:13.894Z,65
2023-04-04T13:28:21.052Z,65
2023-04-04T13:29:28.234Z,65
2023-04-04T13:31:41.799Z,65
2023-04-04T13:32:49.128Z,65
2023-04-04T13:33:56.109Z,65
2023-04-04T13:35:03.561Z,65
2023-04-04T13:36:09.682Z,65
2023-04-04T13:37:16.965Z,65
2023-04-04T13:38:25.969Z,65
2023-04-04T13:39:31.130Z,65
2023-04-04T13:40:38.144Z,65
2023-04-04T13:41:44.829Z,64
2023-04-04T13:42:51.822Z,64
2023-04-04T13:43:59.015Z,64
2023-04-04T13:45:06.009Z,64
2023-04-04T13:46:13.337Z,64
2023-04-04T13:47:19.818Z,64
2023-04-04T13:48:26.955Z,64
2023-04-04T13:49:33.999Z,64
2023-04-04T13:50:41.163Z,63
2023-04-04T13:51:48.225Z,63
2023-04-04T13:52:54.886Z,63
2023-04-04T13:54:01.942Z,63
2023-04-04T13:55:09.042Z,63
2023-04-04T13:56:18.484Z,61
2023-04-04T13:57:23.146Z,62
2023-04-04T13:58:29.835Z,62
2023-04-04T13:59:37.066Z,62
2023-04-04T14:00:44.234Z,61
2023-04-04T14:01:51.232Z,61
2023-04-04T14:02:58.310Z,61
2023-04-04T14:04:10.374Z,61
2023-04-04T14:05:11.897Z,61
2023-04-04T14:06:18.911Z,61
2023-04-04T14:07:26.180Z,62
2023-04-04T14:08:34.577Z,61
2023-04-04T14:09:39.712Z,61
2023-04-04T14:10:47.030Z,61
2023-04-04T14:11:54.245Z,61
2023-04-04T14:13:01.031Z,62
2023-04-04T14:14:07.736Z,62
2023-04-04T14:15:14.810Z,62
2023-04-04T14:16:22.522Z,62
2023-04-04T14:17:29.238Z,62
2023-04-04T14:18:36.072Z,62
2023-04-04T14:19:43.517Z,61
2023-04-04T14:20:50.005Z,62
2023-04-04T14:21:56.882Z,62
2023-04-04T14:23:03.986Z,62
2023-04-04T14:24:11.404Z,62
2023-04-04T14:25:17.810Z,62
2023-04-04T14:26:24.797Z,62
2023-04-04T14:27:32.099Z,62
2023-04-04T14:28:38.942Z,61
2023-04-04T14:29:46.241Z,61
2023-04-04T14:30:52.712Z,62
2023-04-04T14:31:59.948Z,61
2023-04-04T14:33:07.162Z,61
2023-04-04T14:34:14.068Z,62
2023-04-04T14:35:21.233Z,61
2023-04-04T14:36:27.720Z,62
2023-04-04T14:37:34.904Z,62
2023-04-04T14:38:41.917Z,62
2023-04-04T14:39:49.154Z,62
2023-04-04T14:40:56.126Z,62
2023-04-04T14:42:02.702Z,62
2023-04-04T14:43:09.950Z,62
2023-04-04T14:44:16.905Z,62
2023-04-04T14:45:24.102Z,62
2023-04-04T14:46:31.209Z,62
2023-04-04T14:47:37.996Z,62
2023-04-04T14:48:44.944Z,62
2023-04-04T14:49:53.174Z,62
2023-04-04T14:50:58.974Z,62
2023-04-04T14:52:06.168Z,62
2023-04-04T14:53:12.779Z,62
2023-04-04T14:54:19.859Z,62
2023-04-04T14:55:27.025Z,62
2023-04-04T14:56:34.014Z,62
2023-04-04T14:57:57.076Z,61
2023-04-04T14:59:54.874Z,61
2023-04-04T15:02:09.216Z,61
2023-04-04T15:03:15.844Z,61
2023-04-04T15:04:22.767Z,61
2023-04-04T15:05:29.837Z,61
2023-04-04T15:06:37.097Z,61
2023-04-04T15:07:44.071Z,61
2023-04-04T15:08:50.713Z,62
2023-04-04T15:09:57.693Z,61
2023-04-04T15:11:04.973Z,62
2023-04-04T15:12:11.930Z,62
2023-04-04T15:13:19.118Z,62
2023-04-04T15:14:25.772Z,62
2023-04-04T15:15:32.860Z,62
2023-04-04T15:16:40.155Z,62
2023-04-04T15:17:47.031Z,62
2023-04-04T15:18:54.185Z,62
2023-04-04T15:20:01.376Z,62
2023-04-04T15:21:09.122Z,62
2023-04-04T15:22:14.963Z,62
2023-04-04T15:23:22.072Z,62
2023-04-04T15:24:29.191Z,62
2023-04-04T15:25:36.157Z,62
2023-04-04T15:26:42.840Z,62
2023-04-04T15:27:49.977Z,62
2023-04-04T15:28:57.046Z,63
2023-04-04T15:30:04.062Z,63
2023-04-04T15:31:11.130Z,63
2023-04-04T15:32:18.222Z,63
2023-04-04T15:33:25.042Z,63
2023-04-04T15:34:32.107Z,63
2023-04-04T15:35:39.289Z,63
2023-04-04T15:36:46.004Z,64
2023-04-04T15:37:52.897Z,64
2023-04-04T15:38:59.914Z,64
2023-04-04T15:40:07.058Z,64
2023-04-04T15:41:14.067Z,64
2023-04-04T15:42:20.727Z,64
2023-04-04T15:43:27.867Z,64
2023-04-04T15:44:34.865Z,64
2023-04-04T15:45:42.132Z,64
2023-04-04T15:46:49.351Z,64
2023-04-04T15:47:55.765Z,64
2023-04-04T15:49:02.881Z,64
2023-04-04T15:50:10.003Z,64
2023-04-04T15:51:17.211Z,64
2023-04-04T15:52:24.161Z,64
2023-04-04T15:53:30.751Z,64
2023-04-04T15:54:37.875Z,64
2023-04-04T15:55:45.036Z,65
2023-04-04T15:56:52.009Z,65
2023-04-04T15:57:59.326Z,65
2023-04-04T15:59:05.844Z,65
2023-04-04T16:00:12.852Z,65
2023-04-04T16:01:20.035Z,65
2023-04-04T16:02:27.092Z,65
2023-04-04T16:03:34.279Z,65
2023-04-04T16:05:47.889Z,65
2023-04-04T16:06:55.160Z,65
2023-04-04T16:08:02.127Z,65
2023-04-04T16:09:09.220Z,65
2023-04-04T16:10:16.067Z,66
2023-04-04T16:11:22.915Z,66
2023-04-04T16:12:29.985Z,66
2023-04-04T16:13:37.021Z,66
2023-04-04T16:14:43.831Z,66
2023-04-04T16:15:50.899Z,66
2023-04-04T16:16:57.881Z,66
2023-04-04T16:18:05.062Z,66
2023-04-04T16:19:12.183Z,66
2023-04-04T16:20:18.721Z,66
2023-04-04T16:21:25.896Z,66
2023-04-04T16:22:33.033Z,66